createdAt,value
2017-07-21T00:01:01.697Z,100442.98
2017-07-21T00:03:32.124Z,100451.73
2017-07-21T00:06:00.472Z,100450.61
2017-07-21T00:08:28.822Z,100449.33
2017-07-21T00:10:57.181Z,100451.91
2017-07-21T00:13:25.540Z,100453.48
2017-07-21T00:15:53.899Z,100455.52
2017-07-21T00:18:22.246Z,100453.55
2017-07-21T00:20:51.188Z,100465.20
2017-07-21T00:23:19.754Z,100462.67
2017-07-21T00:25:48.177Z,100460.56
2017-07-21T00:28:16.540Z,100466.44
2017-07-21T00:30:44.990Z,100462.08
2017-07-21T00:33:13.351Z,100458.14
2017-07-21T00:35:41.704Z,100455.38
2017-07-21T00:38:10.054Z,100457.35
2017-07-21T00:40:38.413Z,100475.76
2017-07-21T00:43:06.785Z,100470.42
2017-07-21T00:45:35.131Z,100473.05
2017-07-21T00:48:03.634Z,100474.42
2017-07-21T00:50:31.991Z,100477.47
2017-07-21T00:53:00.739Z,100476.47
2017-07-21T00:55:29.094Z,100479.39
2017-07-21T00:57:57.465Z,100476.67
2017-07-21T01:00:25.827Z,100479.58
2017-07-21T01:02:54.577Z,100473.90
2017-07-21T01:05:22.933Z,100480.00
2017-07-21T01:07:51.277Z,100483.92
2017-07-21T01:10:20.004Z,100486.17
2017-07-21T01:12:48.343Z,100480.69
2017-07-21T01:15:16.718Z,100485.38
2017-07-21T01:17:45.565Z,100482.28
2017-07-21T01:20:13.924Z,100491.05
2017-07-21T01:22:42.292Z,100492.61
2017-07-21T01:25:10.647Z,100495.61
2017-07-21T01:27:39.007Z,100495.89
2017-07-21T01:30:07.358Z,100506.30
2017-07-21T01:32:35.711Z,100502.98
2017-07-21T01:35:04.076Z,100509.92
2017-07-21T01:37:32.587Z,100511.17
2017-07-21T01:40:00.947Z,100518.37
2017-07-21T01:42:29.287Z,100511.53
2017-07-21T01:44:58.045Z,100511.23
2017-07-21T01:47:26.399Z,100518.53
2017-07-21T01:49:54.759Z,100516.93
2017-07-21T01:52:23.119Z,100519.59
2017-07-21T01:54:51.880Z,100517.32
2017-07-21T01:57:20.324Z,100515.91
2017-07-21T01:59:48.684Z,100520.70
2017-07-21T02:02:17.044Z,100525.42
2017-07-21T02:04:45.783Z,100524.45
2017-07-21T02:07:14.152Z,100520.84
2017-07-21T02:09:42.551Z,100521.69
2017-07-21T02:12:12.509Z,100522.88
2017-07-21T02:14:41.262Z,100524.89
2017-07-21T02:17:09.632Z,100528.02
2017-07-21T02:19:38.000Z,100529.60
2017-07-21T02:22:06.534Z,100533.89
2017-07-21T02:24:35.275Z,100543.41
2017-07-21T02:27:03.616Z,100538.02
2017-07-21T02:29:32.295Z,100536.05
2017-07-21T02:32:01.153Z,100544.91
2017-07-21T02:34:29.874Z,100550.85
2017-07-21T02:36:58.624Z,100550.30
2017-07-21T02:39:27.198Z,100552.70
2017-07-21T02:41:55.550Z,100555.38
2017-07-21T02:44:23.908Z,100555.38
2017-07-21T02:46:53.537Z,100561.75
2017-07-21T02:49:21.892Z,100564.94
2017-07-21T02:51:50.647Z,100562.48
2017-07-21T02:54:18.991Z,100559.31
2017-07-21T02:56:47.358Z,100552.43
2017-07-21T02:59:16.021Z,100557.95
2017-07-21T03:01:44.770Z,100564.31
2017-07-21T03:04:13.124Z,100562.80
2017-07-21T03:06:41.488Z,100566.55
2017-07-21T03:09:09.830Z,100566.80
2017-07-21T03:11:38.191Z,100573.34
2017-07-21T03:14:06.547Z,100569.64
2017-07-21T03:16:34.924Z,100567.44
2017-07-21T03:19:03.284Z,100569.21
2017-07-21T03:21:31.626Z,100568.06
2017-07-21T03:23:59.984Z,100570.97
2017-07-21T03:26:28.336Z,100581.30
2017-07-21T03:28:56.704Z,100578.18
2017-07-21T03:31:25.057Z,100577.64
2017-07-21T03:33:53.798Z,100579.22
2017-07-21T03:36:22.160Z,100579.59
2017-07-21T03:38:50.672Z,100579.37
2017-07-21T03:41:19.015Z,100587.16
2017-07-21T03:43:47.367Z,100584.08
2017-07-21T03:46:16.223Z,100586.74
2017-07-21T03:48:44.567Z,100593.91
2017-07-21T03:51:12.983Z,100598.82
2017-07-21T03:53:41.341Z,100599.73
2017-07-21T03:56:09.704Z,100595.23
2017-07-21T03:58:38.059Z,100595.66
2017-07-21T04:01:06.841Z,100597.91
2017-07-21T04:03:35.595Z,100599.19
2017-07-21T04:06:03.944Z,100603.79
2017-07-21T04:08:32.290Z,100602.95
2017-07-21T04:11:00.656Z,100604.66
2017-07-21T04:13:29.025Z,100599.81
2017-07-21T04:15:57.380Z,100602.86
2017-07-21T04:18:25.726Z,100606.80
2017-07-21T04:20:54.088Z,100604.44
2017-07-21T04:23:22.844Z,100600.87
2017-07-21T04:25:51.203Z,100605.52
2017-07-21T04:28:19.559Z,100609.25
2017-07-21T04:30:47.912Z,100604.89
2017-07-21T04:33:16.664Z,100606.80
2017-07-21T04:35:45.028Z,100613.45
2017-07-21T04:38:13.379Z,100615.77
2017-07-21T04:40:41.757Z,100606.63
2017-07-21T04:43:10.112Z,100606.63
2017-07-21T04:45:38.868Z,100610.67
2017-07-21T04:48:07.223Z,100606.91
2017-07-21T04:50:35.574Z,100612.03
2017-07-21T04:53:04.244Z,100611.34
2017-07-21T04:55:33.011Z,100615.05
2017-07-21T04:58:01.347Z,100624.48
2017-07-21T05:00:29.946Z,100630.20
2017-07-21T05:02:58.282Z,100634.38
2017-07-21T05:05:27.033Z,100637.60
2017-07-21T05:07:55.395Z,100629.03
2017-07-21T05:10:23.743Z,100629.45
2017-07-21T05:12:52.100Z,100633.67
2017-07-21T05:15:21.052Z,100633.49
2017-07-21T05:17:49.410Z,100633.83
2017-07-21T05:20:17.741Z,100636.27
2017-07-21T05:22:46.700Z,100643.81
2017-07-21T05:25:15.038Z,100639.19
2017-07-21T05:27:43.388Z,100644.80
2017-07-21T05:30:11.752Z,100649.58
2017-07-21T05:32:40.115Z,100644.92
2017-07-21T05:35:08.463Z,100653.65
2017-07-21T05:37:36.811Z,100653.25
2017-07-21T05:40:05.559Z,100658.64
2017-07-21T05:42:34.135Z,100658.31
2017-07-21T05:45:02.746Z,100665.12
2017-07-21T05:47:31.095Z,100661.72
2017-07-21T05:49:59.435Z,100668.46
2017-07-21T05:52:28.193Z,100674.47
2017-07-21T05:54:56.544Z,100670.39
2017-07-21T05:57:24.894Z,100677.72
2017-07-21T05:59:53.236Z,100678.64
2017-07-21T06:02:21.719Z,100678.78
2017-07-21T06:04:50.054Z,100687.48
2017-07-21T06:07:18.416Z,100683.09
2017-07-21T06:09:46.755Z,100694.64
2017-07-21T06:12:15.207Z,100693.80
2017-07-21T06:14:43.556Z,100701.64
2017-07-21T06:17:12.081Z,100699.80
2017-07-21T06:19:40.461Z,100705.27
2017-07-21T06:22:08.798Z,100701.23
2017-07-21T06:24:37.164Z,100705.34
2017-07-21T06:27:05.924Z,100708.69
2017-07-21T06:29:34.280Z,100712.70
2017-07-21T06:32:02.618Z,100703.59
2017-07-21T06:34:30.965Z,100709.47
2017-07-21T06:36:59.298Z,100712.11
2017-07-21T06:39:27.646Z,100711.02
2017-07-21T06:41:57.156Z,100715.19
2017-07-21T06:44:25.507Z,100725.52
2017-07-21T06:46:53.869Z,100721.66
2017-07-21T06:49:22.216Z,100720.12
2017-07-21T06:51:50.611Z,100722.70
2017-07-21T06:54:18.966Z,100725.08
2017-07-21T06:56:47.328Z,100723.06
2017-07-21T06:59:16.059Z,100727.48
2017-07-21T07:01:44.415Z,100727.33
2017-07-21T07:04:12.759Z,100729.33
2017-07-21T07:06:41.318Z,100735.44
2017-07-21T07:09:09.663Z,100735.72
2017-07-21T07:11:38.017Z,100728.66
2017-07-21T07:14:06.768Z,100736.45
2017-07-21T07:16:35.121Z,100744.04
2017-07-21T07:19:03.463Z,100747.33
2017-07-21T07:21:32.205Z,100738.52
2017-07-21T07:24:00.565Z,100743.98
2017-07-21T07:26:28.911Z,100740.55
2017-07-21T07:28:57.672Z,100749.22
2017-07-21T07:31:26.008Z,100747.89
2017-07-21T07:33:54.525Z,100748.56
2017-07-21T07:36:22.870Z,100755.44
2017-07-21T07:38:51.220Z,100750.78
2017-07-21T07:41:19.976Z,100755.23
2017-07-21T07:43:48.455Z,100753.27
2017-07-21T07:46:16.813Z,100769.48
2017-07-21T07:48:45.161Z,100776.48
2017-07-21T07:51:13.525Z,100773.77
2017-07-21T07:53:42.273Z,100778.08
2017-07-21T07:56:10.634Z,100783.74
2017-07-21T07:58:38.979Z,100787.76
2017-07-21T08:01:07.690Z,100782.37
2017-07-21T08:03:36.035Z,100788.61
2017-07-21T08:06:04.784Z,100789.11
2017-07-21T08:08:33.131Z,100789.05
2017-07-21T08:11:01.526Z,100793.31
2017-07-21T08:13:29.991Z,100795.46
2017-07-21T08:15:59.044Z,100809.25
2017-07-21T08:18:27.787Z,100808.84
2017-07-21T08:20:56.177Z,100817.61
2017-07-21T08:23:24.524Z,100818.63
2017-07-21T08:25:52.871Z,100816.36
2017-07-21T08:28:21.828Z,100823.09
2017-07-21T08:30:50.167Z,100820.09
2017-07-21T08:33:18.515Z,100825.67
2017-07-21T08:35:46.872Z,100821.38
2017-07-21T08:38:15.206Z,100825.17
2017-07-21T08:40:43.559Z,100827.97
2017-07-21T08:43:11.913Z,100823.08
2017-07-21T08:45:40.272Z,100831.93
2017-07-21T08:48:08.619Z,100824.71
2017-07-21T08:50:37.344Z,100823.93
2017-07-21T08:53:05.696Z,100821.70
2017-07-21T08:55:34.491Z,100821.94
2017-07-21T08:58:02.872Z,100824.13
2017-07-21T09:00:31.212Z,100825.50
2017-07-21T09:02:59.968Z,100824.47
2017-07-21T09:05:28.316Z,100830.37
2017-07-21T09:07:56.674Z,100832.13
2017-07-21T09:10:25.077Z,100832.34
2017-07-21T09:12:53.436Z,100835.30
2017-07-21T09:15:21.788Z,100835.34
2017-07-21T09:17:50.345Z,100838.11
2017-07-21T09:20:18.692Z,100838.84
2017-07-21T09:22:47.043Z,100841.67
2017-07-21T09:25:15.888Z,100841.80
2017-07-21T09:27:44.243Z,100832.63
2017-07-21T09:30:12.590Z,100838.81
2017-07-21T09:32:40.930Z,100837.22
2017-07-21T09:35:09.290Z,100835.35
2017-07-21T09:37:37.635Z,100837.80
2017-07-21T09:40:05.991Z,100832.28
2017-07-21T09:42:34.326Z,100833.14
2017-07-21T09:45:03.414Z,100829.64
2017-07-21T09:47:31.762Z,100831.45
2017-07-21T09:50:00.590Z,100835.17
2017-07-21T09:52:28.943Z,100834.91
2017-07-21T09:54:58.060Z,100837.83
2017-07-21T09:57:26.416Z,100832.20
2017-07-21T09:59:55.146Z,100835.73
2017-07-21T10:02:23.518Z,100845.55
2017-07-21T10:04:51.220Z,100849.23
2017-07-21T10:07:19.580Z,100841.69
2017-07-21T10:09:48.138Z,100837.90
2017-07-21T10:12:16.624Z,100831.89
2017-07-21T10:14:44.981Z,100829.16
2017-07-21T10:17:13.639Z,100829.11
2017-07-21T10:19:42.387Z,100837.40
2017-07-21T10:22:10.736Z,100839.64
2017-07-21T10:24:40.292Z,100832.45
2017-07-21T10:27:08.630Z,100835.95
2017-07-21T10:29:36.983Z,100832.55
2017-07-21T10:32:05.805Z,100833.39
2017-07-21T10:34:34.158Z,100835.31
2017-07-21T10:37:02.906Z,100836.52
2017-07-21T10:39:31.375Z,100825.46
2017-07-21T10:41:59.728Z,100835.77
2017-07-21T10:44:28.076Z,100830.88
2017-07-21T10:46:56.837Z,100832.47
2017-07-21T10:49:25.178Z,100831.86
2017-07-21T10:51:53.551Z,100841.03
2017-07-21T10:54:21.900Z,100830.00
2017-07-21T10:56:50.652Z,100838.61
2017-07-21T10:59:18.999Z,100839.82
2017-07-21T11:01:47.378Z,100834.46
2017-07-21T11:04:15.723Z,100841.50
2017-07-21T11:06:44.470Z,100832.89
2017-07-21T11:09:12.806Z,100835.81
2017-07-21T11:11:41.319Z,100833.25
2017-07-21T11:14:09.664Z,100836.27
2017-07-21T11:16:38.399Z,100828.91
2017-07-21T11:19:07.283Z,100822.33
2017-07-21T11:21:35.623Z,100824.97
2017-07-21T11:24:03.981Z,100826.16
2017-07-21T11:26:32.827Z,100824.47
2017-07-21T11:29:01.161Z,100831.58
2017-07-21T11:31:29.927Z,100825.79
2017-07-21T11:33:58.491Z,100827.44
2017-07-21T11:36:26.844Z,100826.01
2017-07-21T11:38:55.191Z,100824.05
2017-07-21T11:41:24.141Z,100827.19
2017-07-21T11:43:52.496Z,100824.05
2017-07-21T11:46:20.838Z,100818.85
2017-07-21T11:48:49.793Z,100816.53
2017-07-21T11:51:19.096Z,100816.87
2017-07-21T11:53:47.768Z,100825.25
2017-07-21T11:56:16.423Z,100821.62
2017-07-21T11:58:44.784Z,100817.25
2017-07-21T12:01:13.405Z,100814.50
2017-07-21T12:03:42.003Z,100810.37
2017-07-21T12:06:10.631Z,100810.80
2017-07-21T12:08:39.370Z,100815.99
2017-07-21T12:11:07.954Z,100813.13
2017-07-21T12:13:36.318Z,100811.45
2017-07-21T12:16:04.804Z,100811.20
2017-07-21T12:18:33.412Z,100809.66
2017-07-21T12:21:02.058Z,100807.08
2017-07-21T12:23:30.461Z,100805.40
2017-07-21T12:25:59.046Z,100800.83
2017-07-21T12:28:27.393Z,100800.64
2017-07-21T12:30:55.743Z,100799.93
2017-07-21T12:33:24.420Z,100798.94
2017-07-21T12:35:52.787Z,100802.84
2017-07-21T12:38:21.140Z,100801.38
2017-07-21T12:40:49.670Z,100799.66
2017-07-21T12:43:18.020Z,100795.17
2017-07-21T12:45:46.384Z,100794.83
2017-07-21T12:48:15.009Z,100794.98
2017-07-21T12:50:43.354Z,100783.43
2017-07-21T12:53:11.699Z,100785.16
2017-07-21T12:55:40.839Z,100785.02
2017-07-21T12:58:09.301Z,100785.83
2017-07-21T13:00:37.642Z,100787.27
2017-07-21T13:03:06.207Z,100785.11
2017-07-21T13:05:34.553Z,100784.00
2017-07-21T13:08:02.900Z,100779.94
2017-07-21T13:10:31.660Z,100781.45
2017-07-21T13:13:00.012Z,100783.23
2017-07-21T13:15:28.354Z,100776.80
2017-07-21T13:17:56.694Z,100768.23
2017-07-21T13:20:25.158Z,100769.94
2017-07-21T13:22:53.499Z,100767.08
2017-07-21T13:25:21.859Z,100762.06
2017-07-21T13:27:50.229Z,100762.61
2017-07-21T13:30:18.570Z,100757.66
2017-07-21T13:32:46.923Z,100760.59
2017-07-21T13:35:15.266Z,100763.36
2017-07-21T13:37:44.020Z,100756.83
2017-07-21T13:40:12.987Z,100757.87
2017-07-21T13:42:42.119Z,100754.89
2017-07-21T13:45:10.484Z,100757.31
2017-07-21T13:47:39.112Z,100754.77
2017-07-21T13:50:07.876Z,100752.03
2017-07-21T13:52:37.282Z,100752.63
2017-07-21T13:55:05.648Z,100744.39
2017-07-21T13:57:34.004Z,100746.06
2017-07-21T14:00:02.351Z,100745.02
2017-07-21T14:02:30.699Z,100744.30
2017-07-21T14:04:59.299Z,100743.75
2017-07-21T14:07:28.068Z,100743.64
2017-07-21T14:09:56.425Z,100743.75
2017-07-21T14:12:24.788Z,100740.25
2017-07-21T14:14:53.270Z,100747.27
2017-07-21T14:17:21.620Z,100739.19
2017-07-21T14:19:49.962Z,100733.37
2017-07-21T14:22:18.329Z,100737.38
2017-07-21T14:24:46.683Z,100728.41
2017-07-21T14:27:15.046Z,100727.28
2017-07-21T14:29:43.400Z,100731.81
2017-07-21T14:32:11.745Z,100720.27
2017-07-21T14:34:40.082Z,100726.48
2017-07-21T14:37:08.443Z,100719.89
2017-07-21T14:39:37.178Z,100722.86
2017-07-21T14:42:05.672Z,100724.70
2017-07-21T14:44:34.010Z,100724.14
2017-07-21T14:47:02.360Z,100726.09
2017-07-21T14:49:30.710Z,100724.03
2017-07-21T14:51:59.070Z,100727.53
2017-07-21T14:54:27.424Z,100724.78
2017-07-21T14:56:56.210Z,100725.87
2017-07-21T14:59:24.608Z,100719.41
2017-07-21T15:01:52.954Z,100720.88
2017-07-21T15:04:21.704Z,100723.21
2017-07-21T15:06:50.050Z,100720.20
2017-07-21T15:09:18.772Z,100720.31
2017-07-21T15:11:47.126Z,100717.23
2017-07-21T15:14:15.481Z,100719.36
2017-07-21T15:16:43.885Z,100714.77
2017-07-21T15:19:12.229Z,100709.58
2017-07-21T15:21:40.980Z,100700.99
2017-07-21T15:24:09.351Z,100703.91
2017-07-21T15:26:37.704Z,100706.31
2017-07-21T15:29:06.059Z,100703.44
2017-07-21T15:31:34.414Z,100699.23
2017-07-21T15:34:02.763Z,100697.98
2017-07-21T15:36:31.219Z,100700.66
2017-07-21T15:38:59.568Z,100696.77
2017-07-21T15:41:28.302Z,100694.48
2017-07-21T15:43:56.670Z,100692.77
2017-07-21T15:46:25.025Z,100687.50
2017-07-21T15:48:53.780Z,100689.36
2017-07-21T15:51:22.114Z,100686.93
2017-07-21T15:53:50.472Z,100688.27
2017-07-21T15:56:18.810Z,100690.88
2017-07-21T15:58:47.163Z,100684.87
2017-07-21T16:01:15.517Z,100681.58
2017-07-21T16:03:43.875Z,100684.97
2017-07-21T16:06:12.627Z,100684.16
2017-07-21T16:08:40.994Z,100687.08
2017-07-21T16:11:09.403Z,100681.57
2017-07-21T16:13:37.756Z,100686.73
2017-07-21T16:16:06.116Z,100679.03
2017-07-21T16:18:34.469Z,100678.03
2017-07-21T16:21:02.830Z,100678.18
2017-07-21T16:23:31.180Z,100679.11
2017-07-21T16:25:59.656Z,100674.81
2017-07-21T16:28:28.007Z,100677.62
2017-07-21T16:30:56.408Z,100680.72
2017-07-21T16:33:24.776Z,100682.47
2017-07-21T16:35:53.118Z,100681.48
2017-07-21T16:38:21.870Z,100671.89
2017-07-21T16:40:50.486Z,100670.42
2017-07-21T16:43:19.239Z,100674.67
2017-07-21T16:45:47.583Z,100671.92
2017-07-21T16:48:15.952Z,100677.55
2017-07-21T16:50:44.316Z,100677.84
2017-07-21T16:53:12.667Z,100676.63
2017-07-21T16:55:41.015Z,100671.73
2017-07-21T16:58:09.372Z,100671.58
2017-07-21T17:00:37.725Z,100667.33
2017-07-21T17:03:06.271Z,100674.47
2017-07-21T17:05:34.618Z,100672.64
2017-07-21T17:08:02.973Z,100678.27
2017-07-21T17:10:31.717Z,100676.48
2017-07-21T17:13:00.070Z,100664.42
2017-07-21T17:15:28.410Z,100674.26
2017-07-21T17:17:56.752Z,100672.30
2017-07-21T17:20:25.099Z,100668.90
2017-07-21T17:22:53.451Z,100668.47
2017-07-21T17:25:22.190Z,100659.53
2017-07-21T17:27:50.544Z,100669.79
2017-07-21T17:30:19.269Z,100675.36
2017-07-21T17:32:47.609Z,100673.78
2017-07-21T17:35:15.947Z,100663.61
2017-07-21T17:37:44.930Z,100664.39
2017-07-21T17:40:13.294Z,100667.57
2017-07-21T17:42:41.647Z,100668.78
2017-07-21T17:45:09.986Z,100675.79
2017-07-21T17:47:38.349Z,100668.88
2017-07-21T17:50:06.700Z,100670.82
2017-07-21T17:52:35.079Z,100667.34
2017-07-21T17:55:03.459Z,100660.67
2017-07-21T17:57:32.201Z,100668.52
2017-07-21T18:00:00.947Z,100667.34
2017-07-21T18:02:29.302Z,100660.46
2017-07-21T18:04:57.674Z,100662.25
2017-07-21T18:07:26.133Z,100660.37
2017-07-21T18:09:54.897Z,100665.95
2017-07-21T18:12:23.237Z,100661.72
2017-07-21T18:14:51.672Z,100663.97
2017-07-21T18:17:20.420Z,100665.08
2017-07-21T18:19:48.937Z,100670.65
2017-07-21T18:22:17.293Z,100672.38
2017-07-21T18:24:45.934Z,100664.74
2017-07-21T18:27:14.270Z,100670.81
2017-07-21T18:29:42.624Z,100674.21
2017-07-21T18:32:11.032Z,100668.67
2017-07-21T18:34:39.796Z,100669.98
2017-07-21T18:37:08.160Z,100671.84
2017-07-21T18:39:36.512Z,100679.94
2017-07-21T18:42:04.867Z,100677.58
2017-07-21T18:44:33.597Z,100685.29
2017-07-21T18:47:01.964Z,100682.80
2017-07-21T18:49:30.324Z,100677.95
2017-07-21T18:51:59.090Z,100681.89
2017-07-21T18:54:27.442Z,100683.25
2017-07-21T18:56:56.340Z,100686.45
2017-07-21T18:59:24.683Z,100687.28
2017-07-21T19:01:53.036Z,100691.20
2017-07-21T19:04:22.026Z,100690.44
2017-07-21T19:06:50.766Z,100691.42
2017-07-21T19:09:19.145Z,100693.24
2017-07-21T19:11:47.501Z,100690.60
2017-07-21T19:14:15.850Z,100691.47
2017-07-21T19:16:44.206Z,100699.59
2017-07-21T19:19:12.563Z,100695.92
2017-07-21T19:21:40.913Z,100698.19
2017-07-21T19:24:09.292Z,100693.58
2017-07-21T19:26:37.643Z,100697.39
2017-07-21T19:29:05.995Z,100708.19
2017-07-21T19:31:34.351Z,100713.55
2017-07-21T19:34:02.707Z,100714.59
2017-07-21T19:36:31.058Z,100716.15
2017-07-21T19:38:59.407Z,100728.34
2017-07-21T19:41:27.769Z,100725.78
2017-07-21T19:43:56.106Z,100726.78
2017-07-21T19:46:24.847Z,100720.64
2017-07-21T19:48:53.184Z,100726.39
2017-07-21T19:51:21.960Z,100730.33
2017-07-21T19:53:50.315Z,100730.48
2017-07-21T19:56:18.877Z,100730.55
2017-07-21T19:58:47.511Z,100729.93
2017-07-21T20:01:16.277Z,100732.27
2017-07-21T20:03:44.632Z,100731.32
2017-07-21T20:06:12.971Z,100732.17
2017-07-21T20:08:41.337Z,100731.85
2017-07-21T20:11:09.699Z,100733.19
2017-07-21T20:13:38.058Z,100734.64
2017-07-21T20:16:06.405Z,100741.13
2017-07-21T20:18:34.762Z,100737.49
2017-07-21T20:21:03.502Z,100751.33
2017-07-21T20:23:32.288Z,100750.32
2017-07-21T20:26:00.640Z,100752.06
2017-07-21T20:28:29.297Z,100749.55
2017-07-21T20:30:58.060Z,100755.61
2017-07-21T20:33:26.418Z,100750.61
2017-07-21T20:35:54.888Z,100754.10
2017-07-21T20:38:23.236Z,100757.18
2017-07-21T20:40:52.069Z,100755.31
2017-07-21T20:43:20.429Z,100764.20
2017-07-21T20:45:48.922Z,100771.36
2017-07-21T20:48:17.268Z,100766.98
2017-07-21T20:50:46.017Z,100765.61
2017-07-21T20:53:14.380Z,100769.05
2017-07-21T20:55:42.731Z,100763.67
2017-07-21T20:58:11.093Z,100768.42
2017-07-21T21:00:39.840Z,100770.63
2017-07-21T21:03:08.190Z,100765.03
2017-07-21T21:05:36.534Z,100766.71
2017-07-21T21:08:05.291Z,100766.86
2017-07-21T21:10:33.642Z,100765.39
2017-07-21T21:13:02.136Z,100772.58
2017-07-21T21:15:30.492Z,100776.39
2017-07-21T21:17:58.841Z,100775.06
2017-07-21T21:20:27.592Z,100777.05
2017-07-21T21:22:55.945Z,100781.82
2017-07-21T21:25:24.983Z,100783.81
2017-07-21T21:27:53.350Z,100779.48
2017-07-21T21:30:21.754Z,100785.83
2017-07-21T21:32:50.486Z,100780.97
2017-07-21T21:35:18.856Z,100785.69
2017-07-21T21:37:47.212Z,100786.98
2017-07-21T21:40:15.574Z,100781.92
2017-07-21T21:42:43.957Z,100782.35
2017-07-21T21:45:12.505Z,100782.92
2017-07-21T21:47:40.862Z,100785.56
2017-07-21T21:50:09.261Z,100784.20
2017-07-21T21:52:37.850Z,100787.18
2017-07-21T21:55:06.200Z,100790.41
2017-07-21T21:57:34.585Z,100787.48
2017-07-21T22:00:02.976Z,100784.50
2017-07-21T22:02:31.346Z,100789.66
2017-07-21T22:04:59.992Z,100785.67
2017-07-21T22:07:28.748Z,100777.44
2017-07-21T22:09:57.106Z,100785.48
2017-07-21T22:12:26.293Z,100789.00
2017-07-21T22:14:54.651Z,100792.89
2017-07-21T22:17:23.413Z,100786.83
2017-07-21T22:19:52.072Z,100787.53
2017-07-21T22:22:20.430Z,100782.75
2017-07-21T22:24:48.783Z,100789.52
2017-07-21T22:27:17.534Z,100788.00
2017-07-21T22:29:46.788Z,100782.89
2017-07-21T22:32:15.183Z,100785.30
2017-07-21T22:34:43.557Z,100790.67
2017-07-21T22:37:11.979Z,100800.63
2017-07-21T22:39:40.336Z,100792.59
2017-07-21T22:42:09.349Z,100796.48
2017-07-21T22:44:37.702Z,100799.05
2017-07-21T22:47:06.121Z,100793.91
2017-07-21T22:49:34.494Z,100795.88
2017-07-21T22:52:03.050Z,100804.70
2017-07-21T22:54:32.060Z,100793.37
2017-07-21T22:57:00.408Z,100796.93
2017-07-21T22:59:28.773Z,100801.67
2017-07-21T23:01:57.131Z,100809.34
2017-07-21T23:04:25.905Z,100809.66
2017-07-21T23:06:54.280Z,100807.38
2017-07-21T23:09:22.787Z,100805.34
2017-07-21T23:11:51.148Z,100805.89
2017-07-21T23:14:19.520Z,100800.13
2017-07-21T23:16:47.871Z,100805.45
2017-07-21T23:19:16.440Z,100804.00
2017-07-21T23:21:44.824Z,100808.84
2017-07-21T23:24:13.183Z,100803.33
2017-07-21T23:26:41.547Z,100810.14
2017-07-21T23:29:10.336Z,100812.47
2017-07-21T23:31:38.705Z,100823.14
2017-07-21T23:34:07.063Z,100827.32
2017-07-21T23:36:35.532Z,100823.27
2017-07-21T23:39:03.883Z,100822.77
2017-07-21T23:41:32.587Z,100812.65
2017-07-21T23:44:00.934Z,100826.68
2017-07-21T23:46:29.278Z,100821.23
2017-07-21T23:48:57.645Z,100823.66
2017-07-21T23:51:25.990Z,100816.18
2017-07-21T23:53:54.348Z,100814.28
2017-07-21T23:56:22.718Z,100820.58
2017-07-21T23:58:51.480Z,100817.64
